sensor_id;sensor_type;location;lat;lon;timestamp;temperature;humidity
53282;DHT22;39167;52.794;6.892;2023-02-28T00:00:35;3.30;99.90
53282;DHT22;39167;52.794;6.892;2023-02-28T00:03:01;3.70;99.90
53282;DHT22;39167;52.794;6.892;2023-02-28T00:05:27;4.10;99.90
53282;DHT22;39167;52.794;6.892;2023-02-28T00:07:54;3.30;99.90
53282;DHT22;39167;52.794;6.892;2023-02-28T00:10:22;4.00;99.90
53282;DHT22;39167;52.794;6.892;2023-02-28T00:12:49;3.30;99.90
53282;DHT22;39167;52.794;6.892;2023-02-28T00:15:16;3.30;99.90
53282;DHT22;39167;52.794;6.892;2023-02-28T00:17:43;3.30;99.90
53282;DHT22;39167;52.794;6.892;2023-02-28T00:20:10;3.30;99.90
53282;DHT22;39167;52.794;6.892;2023-02-28T00:22:48;3.30;99.90
53282;DHT22;39167;52.794;6.892;2023-02-28T00:25:17;3.90;99.90
53282;DHT22;39167;52.794;6.892;2023-02-28T00:27:43;3.30;99.90
53282;DHT22;39167;52.794;6.892;2023-02-28T00:30:12;4.00;99.90
53282;DHT22;39167;52.794;6.892;2023-02-28T00:32:38;3.30;99.90
53282;DHT22;39167;52.794;6.892;2023-02-28T00:35:05;3.50;99.90
53282;DHT22;39167;52.794;6.892;2023-02-28T00:37:31;3.30;99.90
53282;DHT22;39167;52.794;6.892;2023-02-28T00:39:57;3.50;99.90
53282;DHT22;39167;52.794;6.892;2023-02-28T00:42:23;3.30;99.90
53282;DHT22;39167;52.794;6.892;2023-02-28T00:44:49;3.30;99.90
53282;DHT22;39167;52.794;6.892;2023-02-28T00:47:15;3.30;99.90
53282;DHT22;39167;52.794;6.892;2023-02-28T00:49:41;3.50;99.90
53282;DHT22;39167;52.794;6.892;2023-02-28T00:52:07;3.30;99.90
53282;DHT22;39167;52.794;6.892;2023-02-28T00:54:33;3.30;99.90
53282;DHT22;39167;52.794;6.892;2023-02-28T00:56:59;4.10;99.90
53282;DHT22;39167;52.794;6.892;2023-02-28T00:59:25;3.30;99.90
53282;DHT22;39167;52.794;6.892;2023-02-28T01:01:51;4.00;99.90
53282;DHT22;39167;52.794;6.892;2023-02-28T01:04:17;3.30;99.90
53282;DHT22;39167;52.794;6.892;2023-02-28T01:06:43;3.30;99.90
53282;DHT22;39167;52.794;6.892;2023-02-28T01:09:08;3.50;99.90
53282;DHT22;39167;52.794;6.892;2023-02-28T01:11:35;4.00;99.90
53282;DHT22;39167;52.794;6.892;2023-02-28T01:14:02;3.80;99.90
53282;DHT22;39167;52.794;6.892;2023-02-28T01:16:28;3.30;99.90
53282;DHT22;39167;52.794;6.892;2023-02-28T01:18:54;3.30;99.90
53282;DHT22;39167;52.794;6.892;2023-02-28T01:21:21;3.40;99.90
53282;DHT22;39167;52.794;6.892;2023-02-28T01:23:47;3.30;99.90
53282;DHT22;39167;52.794;6.892;2023-02-28T01:26:19;3.30;99.90
53282;DHT22;39167;52.794;6.892;2023-02-28T01:28:46;3.60;99.90
53282;DHT22;39167;52.794;6.892;2023-02-28T01:31:12;3.70;99.90
53282;DHT22;39167;52.794;6.892;2023-02-28T01:33:38;3.30;99.90
53282;DHT22;39167;52.794;6.892;2023-02-28T01:36:13;3.40;99.90
53282;DHT22;39167;52.794;6.892;2023-02-28T01:38:39;3.30;99.90
53282;DHT22;39167;52.794;6.892;2023-02-28T01:41:05;3.60;99.90
53282;DHT22;39167;52.794;6.892;2023-02-28T01:46:07;3.30;99.90
53282;DHT22;39167;52.794;6.892;2023-02-28T01:48:37;3.70;99.90
53282;DHT22;39167;52.794;6.892;2023-02-28T01:51:08;3.30;99.90
53282;DHT22;39167;52.794;6.892;2023-02-28T01:53:56;4.30;99.90
53282;DHT22;39167;52.794;6.892;2023-02-28T01:56:29;3.30;99.90
53282;DHT22;39167;52.794;6.892;2023-02-28T01:58:56;3.30;99.90
53282;DHT22;39167;52.794;6.892;2023-02-28T02:01:24;3.30;99.90
53282;DHT22;39167;52.794;6.892;2023-02-28T02:03:56;3.30;99.90
53282;DHT22;39167;52.794;6.892;2023-02-28T02:06:26;4.00;99.90
53282;DHT22;39167;52.794;6.892;2023-02-28T02:08:53;3.40;99.90
53282;DHT22;39167;52.794;6.892;2023-02-28T02:11:21;3.30;99.90
53282;DHT22;39167;52.794;6.892;2023-02-28T02:14:10;3.80;99.90
53282;DHT22;39167;52.794;6.892;2023-02-28T02:19:49;3.30;99.90
53282;DHT22;39167;52.794;6.892;2023-02-28T02:35:52;3.30;99.90
53282;DHT22;39167;52.794;6.892;2023-02-28T02:43:49;3.20;99.90
53282;DHT22;39167;52.794;6.892;2023-02-28T02:46:36;4.00;99.90
53282;DHT22;39167;52.794;6.892;2023-02-28T02:49:06;3.60;99.90
53282;DHT22;39167;52.794;6.892;2023-02-28T02:51:34;3.40;99.90
53282;DHT22;39167;52.794;6.892;2023-02-28T02:54:08;3.70;99.90
53282;DHT22;39167;52.794;6.892;2023-02-28T02:56:36;3.20;99.90
53282;DHT22;39167;52.794;6.892;2023-02-28T02:59:08;3.20;99.90
53282;DHT22;39167;52.794;6.892;2023-02-28T03:01:35;3.80;99.90
53282;DHT22;39167;52.794;6.892;2023-02-28T03:04:20;3.20;99.90
53282;DHT22;39167;52.794;6.892;2023-02-28T03:06:46;3.20;99.90
53282;DHT22;39167;52.794;6.892;2023-02-28T03:09:12;3.50;99.90
53282;DHT22;39167;52.794;6.892;2023-02-28T03:11:38;3.10;99.90
53282;DHT22;39167;52.794;6.892;2023-02-28T03:19:45;3.20;99.90
53282;DHT22;39167;52.794;6.892;2023-02-28T03:22:29;3.70;99.90
53282;DHT22;39167;52.794;6.892;2023-02-28T03:31:02;3.10;99.90
53282;DHT22;39167;52.794;6.892;2023-02-28T03:33:32;3.20;99.90
53282;DHT22;39167;52.794;6.892;2023-02-28T03:36:13;3.40;99.90
53282;DHT22;39167;52.794;6.892;2023-02-28T03:38:48;3.20;99.90
53282;DHT22;39167;52.794;6.892;2023-02-28T03:41:32;3.40;99.90
53282;DHT22;39167;52.794;6.892;2023-02-28T03:44:07;3.20;99.90
53282;DHT22;39167;52.794;6.892;2023-02-28T03:46:38;3.20;99.90
53282;DHT22;39167;52.794;6.892;2023-02-28T03:49:22;3.20;99.90
53282;DHT22;39167;52.794;6.892;2023-02-28T03:51:51;3.10;99.90
53282;DHT22;39167;52.794;6.892;2023-02-28T03:54:29;3.20;99.90
53282;DHT22;39167;52.794;6.892;2023-02-28T03:57:18;3.20;99.90
53282;DHT22;39167;52.794;6.892;2023-02-28T03:59:52;3.50;99.90
53282;DHT22;39167;52.794;6.892;2023-02-28T04:02:19;3.20;99.90
53282;DHT22;39167;52.794;6.892;2023-02-28T04:04:45;3.10;99.90
53282;DHT22;39167;52.794;6.892;2023-02-28T04:07:16;3.20;99.90
53282;DHT22;39167;52.794;6.892;2023-02-28T04:09:42;3.20;99.90
53282;DHT22;39167;52.794;6.892;2023-02-28T04:12:09;3.20;99.90
53282;DHT22;39167;52.794;6.892;2023-02-28T04:14:34;3.20;99.90
53282;DHT22;39167;52.794;6.892;2023-02-28T04:17:00;3.20;99.90
53282;DHT22;39167;52.794;6.892;2023-02-28T04:19:26;3.50;99.90
53282;DHT22;39167;52.794;6.892;2023-02-28T04:21:53;3.40;99.90
53282;DHT22;39167;52.794;6.892;2023-02-28T04:24:21;3.20;99.90
53282;DHT22;39167;52.794;6.892;2023-02-28T04:26:50;3.20;99.90
53282;DHT22;39167;52.794;6.892;2023-02-28T04:29:24;3.20;99.90
53282;DHT22;39167;52.794;6.892;2023-02-28T04:31:51;3.40;99.90
53282;DHT22;39167;52.794;6.892;2023-02-28T04:34:19;3.10;99.90
53282;DHT22;39167;52.794;6.892;2023-02-28T04:36:45;3.70;99.90
53282;DHT22;39167;52.794;6.892;2023-02-28T04:39:11;3.50;99.90
53282;DHT22;39167;52.794;6.892;2023-02-28T04:41:37;3.10;99.90
53282;DHT22;39167;52.794;6.892;2023-02-28T04:44:03;3.10;99.90
53282;DHT22;39167;52.794;6.892;2023-02-28T04:46:29;3.10;99.90
53282;DHT22;39167;52.794;6.892;2023-02-28T04:48:55;3.10;99.90
53282;DHT22;39167;52.794;6.892;2023-02-28T04:51:22;3.10;99.90
53282;DHT22;39167;52.794;6.892;2023-02-28T04:53:48;3.10;99.90
53282;DHT22;39167;52.794;6.892;2023-02-28T04:56:16;3.40;99.90
53282;DHT22;39167;52.794;6.892;2023-02-28T04:58:42;3.40;99.90
53282;DHT22;39167;52.794;6.892;2023-02-28T05:01:26;3.10;99.90
53282;DHT22;39167;52.794;6.892;2023-02-28T05:03:54;3.10;99.90
53282;DHT22;39167;52.794;6.892;2023-02-28T05:06:21;3.10;99.90
53282;DHT22;39167;52.794;6.892;2023-02-28T05:08:47;3.70;99.90
53282;DHT22;39167;52.794;6.892;2023-02-28T05:11:24;3.10;99.90
53282;DHT22;39167;52.794;6.892;2023-02-28T05:13:51;3.10;99.90
53282;DHT22;39167;52.794;6.892;2023-02-28T05:16:18;3.50;99.90
53282;DHT22;39167;52.794;6.892;2023-02-28T05:18:45;3.10;99.90
53282;DHT22;39167;52.794;6.892;2023-02-28T05:23:56;3.10;99.90
53282;DHT22;39167;52.794;6.892;2023-02-28T05:26:22;3.10;99.90
53282;DHT22;39167;52.794;6.892;2023-02-28T05:28:48;3.10;99.90
53282;DHT22;39167;52.794;6.892;2023-02-28T05:31:14;3.60;99.90
53282;DHT22;39167;52.794;6.892;2023-02-28T05:33:40;3.00;99.90
53282;DHT22;39167;52.794;6.892;2023-02-28T05:36:07;3.10;99.90
53282;DHT22;39167;52.794;6.892;2023-02-28T05:38:32;3.10;99.90
53282;DHT22;39167;52.794;6.892;2023-02-28T05:40:58;3.10;99.90
53282;DHT22;39167;52.794;6.892;2023-02-28T05:43:24;3.00;99.90
53282;DHT22;39167;52.794;6.892;2023-02-28T05:45:50;3.00;99.90
53282;DHT22;39167;52.794;6.892;2023-02-28T05:48:15;3.50;99.90
53282;DHT22;39167;52.794;6.892;2023-02-28T05:50:42;2.90;99.90
53282;DHT22;39167;52.794;6.892;2023-02-28T05:53:10;4.10;99.90
53282;DHT22;39167;52.794;6.892;2023-02-28T05:55:35;3.10;99.90
53282;DHT22;39167;52.794;6.892;2023-02-28T05:58:02;3.20;99.90
53282;DHT22;39167;52.794;6.892;2023-02-28T06:00:28;3.00;99.90
53282;DHT22;39167;52.794;6.892;2023-02-28T06:02:54;3.00;99.90
53282;DHT22;39167;52.794;6.892;2023-02-28T06:05:22;4.10;99.90
53282;DHT22;39167;52.794;6.892;2023-02-28T06:07:48;3.00;99.90
53282;DHT22;39167;52.794;6.892;2023-02-28T06:10:14;3.60;99.90
53282;DHT22;39167;52.794;6.892;2023-02-28T06:12:40;3.90;99.90
53282;DHT22;39167;52.794;6.892;2023-02-28T06:15:10;3.90;99.90
53282;DHT22;39167;52.794;6.892;2023-02-28T06:17:37;3.00;99.90
53282;DHT22;39167;52.794;6.892;2023-02-28T06:20:04;3.00;99.90
53282;DHT22;39167;52.794;6.892;2023-02-28T06:22:30;3.00;99.90
53282;DHT22;39167;52.794;6.892;2023-02-28T06:24:56;3.10;99.90
53282;DHT22;39167;52.794;6.892;2023-02-28T06:27:23;3.30;99.90
53282;DHT22;39167;52.794;6.892;2023-02-28T06:29:48;4.00;99.90
53282;DHT22;39167;52.794;6.892;2023-02-28T06:32:14;3.00;99.90
53282;DHT22;39167;52.794;6.892;2023-02-28T06:34:40;3.70;99.90
53282;DHT22;39167;52.794;6.892;2023-02-28T06:37:06;3.50;99.90
53282;DHT22;39167;52.794;6.892;2023-02-28T06:39:32;3.80;99.90
53282;DHT22;39167;52.794;6.892;2023-02-28T06:41:57;2.90;99.90
53282;DHT22;39167;52.794;6.892;2023-02-28T06:44:23;3.90;99.90
53282;DHT22;39167;52.794;6.892;2023-02-28T06:46:49;3.30;99.90
53282;DHT22;39167;52.794;6.892;2023-02-28T06:49:16;2.90;99.90
53282;DHT22;39167;52.794;6.892;2023-02-28T06:51:43;4.00;99.90
53282;DHT22;39167;52.794;6.892;2023-02-28T06:54:10;3.80;99.90
53282;DHT22;39167;52.794;6.892;2023-02-28T06:56:37;3.10;99.90
53282;DHT22;39167;52.794;6.892;2023-02-28T06:59:02;3.00;99.90
53282;DHT22;39167;52.794;6.892;2023-02-28T07:01:29;3.00;99.90
53282;DHT22;39167;52.794;6.892;2023-02-28T07:03:58;3.40;99.90
53282;DHT22;39167;52.794;6.892;2023-02-28T07:06:26;4.00;99.90
53282;DHT22;39167;52.794;6.892;2023-02-28T07:08:52;3.00;99.90
53282;DHT22;39167;52.794;6.892;2023-02-28T07:11:20;3.00;99.90
53282;DHT22;39167;52.794;6.892;2023-02-28T07:13:48;3.00;99.90
53282;DHT22;39167;52.794;6.892;2023-02-28T07:16:14;3.00;99.90
53282;DHT22;39167;52.794;6.892;2023-02-28T07:18:40;3.00;99.90
53282;DHT22;39167;52.794;6.892;2023-02-28T07:21:08;3.00;99.90
53282;DHT22;39167;52.794;6.892;2023-02-28T07:23:35;3.20;99.90
53282;DHT22;39167;52.794;6.892;2023-02-28T07:26:01;3.80;99.90
53282;DHT22;39167;52.794;6.892;2023-02-28T07:28:27;3.00;99.90
53282;DHT22;39167;52.794;6.892;2023-02-28T07:30:52;3.30;99.90
53282;DHT22;39167;52.794;6.892;2023-02-28T07:33:18;2.90;99.90
53282;DHT22;39167;52.794;6.892;2023-02-28T07:35:44;3.40;99.90
53282;DHT22;39167;52.794;6.892;2023-02-28T07:38:10;2.90;99.90
53282;DHT22;39167;52.794;6.892;2023-02-28T07:40:36;3.70;99.90
53282;DHT22;39167;52.794;6.892;2023-02-28T07:43:03;3.50;99.90
53282;DHT22;39167;52.794;6.892;2023-02-28T07:45:29;3.80;99.90
53282;DHT22;39167;52.794;6.892;2023-02-28T07:47:56;2.90;99.90
53282;DHT22;39167;52.794;6.892;2023-02-28T07:50:23;2.90;99.90
53282;DHT22;39167;52.794;6.892;2023-02-28T07:52:49;2.90;99.90
53282;DHT22;39167;52.794;6.892;2023-02-28T07:55:14;2.90;99.90
53282;DHT22;39167;52.794;6.892;2023-02-28T07:57:42;2.90;99.90
53282;DHT22;39167;52.794;6.892;2023-02-28T08:00:10;2.90;99.90
53282;DHT22;39167;52.794;6.892;2023-02-28T08:02:36;2.90;99.90
53282;DHT22;39167;52.794;6.892;2023-02-28T08:05:02;2.90;99.90
53282;DHT22;39167;52.794;6.892;2023-02-28T08:07:28;2.90;99.90
53282;DHT22;39167;52.794;6.892;2023-02-28T08:09:54;2.90;99.90
53282;DHT22;39167;52.794;6.892;2023-02-28T08:12:19;2.90;99.90
53282;DHT22;39167;52.794;6.892;2023-02-28T08:14:45;3.40;99.90
53282;DHT22;39167;52.794;6.892;2023-02-28T08:17:11;3.80;99.90
53282;DHT22;39167;52.794;6.892;2023-02-28T08:19:37;3.40;99.90
53282;DHT22;39167;52.794;6.892;2023-02-28T08:22:03;3.00;99.90
53282;DHT22;39167;52.794;6.892;2023-02-28T08:24:29;3.00;99.90
53282;DHT22;39167;52.794;6.892;2023-02-28T08:26:55;3.00;99.90
53282;DHT22;39167;52.794;6.892;2023-02-28T08:29:21;3.00;99.90
53282;DHT22;39167;52.794;6.892;2023-02-28T08:31:47;3.80;99.90
53282;DHT22;39167;52.794;6.892;2023-02-28T08:34:15;3.00;99.90
53282;DHT22;39167;52.794;6.892;2023-02-28T08:36:41;3.00;99.90
53282;DHT22;39167;52.794;6.892;2023-02-28T08:39:08;3.10;99.90
53282;DHT22;39167;52.794;6.892;2023-02-28T08:41:34;3.10;99.90
53282;DHT22;39167;52.794;6.892;2023-02-28T08:44:00;3.10;99.90
53282;DHT22;39167;52.794;6.892;2023-02-28T08:46:26;3.90;99.90
53282;DHT22;39167;52.794;6.892;2023-02-28T08:48:53;3.10;99.90
53282;DHT22;39167;52.794;6.892;2023-02-28T08:51:20;3.70;99.90
53282;DHT22;39167;52.794;6.892;2023-02-28T08:53:55;3.20;99.90
53282;DHT22;39167;52.794;6.892;2023-02-28T08:56:21;3.20;99.90
53282;DHT22;39167;52.794;6.892;2023-02-28T08:58:48;3.30;99.90
53282;DHT22;39167;52.794;6.892;2023-02-28T09:01:26;3.30;99.90
53282;DHT22;39167;52.794;6.892;2023-02-28T09:03:52;3.40;99.90
53282;DHT22;39167;52.794;6.892;2023-02-28T09:06:20;3.40;99.90
53282;DHT22;39167;52.794;6.892;2023-02-28T09:08:46;4.00;99.90
53282;DHT22;39167;52.794;6.892;2023-02-28T09:11:12;3.60;99.90
53282;DHT22;39167;52.794;6.892;2023-02-28T09:13:38;4.30;99.90
53282;DHT22;39167;52.794;6.892;2023-02-28T09:16:08;3.50;99.90
53282;DHT22;39167;52.794;6.892;2023-02-28T09:18:36;3.80;99.90
53282;DHT22;39167;52.794;6.892;2023-02-28T09:21:08;3.70;99.90
53282;DHT22;39167;52.794;6.892;2023-02-28T09:23:35;4.40;99.90
53282;DHT22;39167;52.794;6.892;2023-02-28T09:26:03;3.70;99.90
53282;DHT22;39167;52.794;6.892;2023-02-28T09:28:29;3.80;99.90
53282;DHT22;39167;52.794;6.892;2023-02-28T09:30:55;3.80;99.90
53282;DHT22;39167;52.794;6.892;2023-02-28T09:33:24;4.00;99.90
53282;DHT22;39167;52.794;6.892;2023-02-28T09:35:51;4.50;99.90
53282;DHT22;39167;52.794;6.892;2023-02-28T09:38:22;4.50;99.90
53282;DHT22;39167;52.794;6.892;2023-02-28T09:40:55;4.00;99.90
53282;DHT22;39167;52.794;6.892;2023-02-28T09:43:26;4.00;99.90
53282;DHT22;39167;52.794;6.892;2023-02-28T09:46:05;4.00;99.90
53282;DHT22;39167;52.794;6.892;2023-02-28T09:48:36;4.00;99.90
53282;DHT22;39167;52.794;6.892;2023-02-28T09:51:23;4.60;99.90
53282;DHT22;39167;52.794;6.892;2023-02-28T09:53:53;4.10;99.90
53282;DHT22;39167;52.794;6.892;2023-02-28T09:56:22;4.10;99.90
53282;DHT22;39167;52.794;6.892;2023-02-28T09:59:02;4.60;99.90
53282;DHT22;39167;52.794;6.892;2023-02-28T10:01:47;4.20;99.90
53282;DHT22;39167;52.794;6.892;2023-02-28T10:07:04;4.30;99.90
53282;DHT22;39167;52.794;6.892;2023-02-28T10:09:32;4.30;99.90
53282;DHT22;39167;52.794;6.892;2023-02-28T10:12:04;4.30;99.90
53282;DHT22;39167;52.794;6.892;2023-02-28T10:14:33;4.30;99.90
53282;DHT22;39167;52.794;6.892;2023-02-28T10:17:08;4.50;99.90
53282;DHT22;39167;52.794;6.892;2023-02-28T10:19:56;4.40;99.90
53282;DHT22;39167;52.794;6.892;2023-02-28T10:22:34;4.40;99.90
53282;DHT22;39167;52.794;6.892;2023-02-28T10:25:05;4.40;99.90
53282;DHT22;39167;52.794;6.892;2023-02-28T10:27:40;4.70;99.90
53282;DHT22;39167;52.794;6.892;2023-02-28T10:30:09;4.50;99.90
53282;DHT22;39167;52.794;6.892;2023-02-28T10:32:38;4.50;99.90
53282;DHT22;39167;52.794;6.892;2023-02-28T10:35:15;4.60;99.90
53282;DHT22;39167;52.794;6.892;2023-02-28T10:37:44;4.60;99.90
53282;DHT22;39167;52.794;6.892;2023-02-28T10:43:01;4.70;99.90
53282;DHT22;39167;52.794;6.892;2023-02-28T10:45:32;4.70;99.90
53282;DHT22;39167;52.794;6.892;2023-02-28T10:48:48;4.80;99.90
53282;DHT22;39167;52.794;6.892;2023-02-28T10:56:00;4.90;99.90
53282;DHT22;39167;52.794;6.892;2023-02-28T10:58:34;5.00;99.90
53282;DHT22;39167;52.794;6.892;2023-02-28T11:03:48;5.10;99.90
53282;DHT22;39167;52.794;6.892;2023-02-28T11:11:16;5.60;99.90
53282;DHT22;39167;52.794;6.892;2023-02-28T11:13:44;5.80;99.90
53282;DHT22;39167;52.794;6.892;2023-02-28T11:16:12;5.40;99.90
53282;DHT22;39167;52.794;6.892;2023-02-28T11:21:25;5.50;99.90
53282;DHT22;39167;52.794;6.892;2023-02-28T11:23:56;5.50;99.90
53282;DHT22;39167;52.794;6.892;2023-02-28T11:26:47;5.60;99.90
53282;DHT22;39167;52.794;6.892;2023-02-28T11:29:22;5.70;99.90
53282;DHT22;39167;52.794;6.892;2023-02-28T11:32:21;5.70;99.90
53282;DHT22;39167;52.794;6.892;2023-02-28T11:37:34;6.20;99.90
53282;DHT22;39167;52.794;6.892;2023-02-28T11:40:00;5.90;99.90
53282;DHT22;39167;52.794;6.892;2023-02-28T11:48:21;6.00;99.90
53282;DHT22;39167;52.794;6.892;2023-02-28T12:01:38;6.20;99.90
53282;DHT22;39167;52.794;6.892;2023-02-28T12:04:23;6.30;99.90
53282;DHT22;39167;52.794;6.892;2023-02-28T12:09:40;6.30;99.90
53282;DHT22;39167;52.794;6.892;2023-02-28T12:17:48;6.40;99.90
53282;DHT22;39167;52.794;6.892;2023-02-28T12:26:05;6.50;99.90
53282;DHT22;39167;52.794;6.892;2023-02-28T12:28:39;6.50;99.90
53282;DHT22;39167;52.794;6.892;2023-02-28T12:31:32;6.50;99.90
53282;DHT22;39167;52.794;6.892;2023-02-28T12:34:04;6.50;99.90
53282;DHT22;39167;52.794;6.892;2023-02-28T12:36:33;6.50;99.90
53282;DHT22;39167;52.794;6.892;2023-02-28T12:39:15;6.50;99.90
53282;DHT22;39167;52.794;6.892;2023-02-28T12:44:34;6.50;99.90
53282;DHT22;39167;52.794;6.892;2023-02-28T12:47:04;6.50;99.90
53282;DHT22;39167;52.794;6.892;2023-02-28T12:49:52;6.50;99.90
53282;DHT22;39167;52.794;6.892;2023-02-28T12:52:25;6.60;99.90
53282;DHT22;39167;52.794;6.892;2023-02-28T12:57:40;6.60;99.90
53282;DHT22;39167;52.794;6.892;2023-02-28T13:00:16;6.60;99.90
53282;DHT22;39167;52.794;6.892;2023-02-28T13:11:48;6.70;99.90
53282;DHT22;39167;52.794;6.892;2023-02-28T13:14:24;6.90;99.90
53282;DHT22;39167;52.794;6.892;2023-02-28T13:16:59;6.90;99.90
53282;DHT22;39167;52.794;6.892;2023-02-28T13:19:32;7.10;99.90
53282;DHT22;39167;52.794;6.892;2023-02-28T13:21:59;7.10;99.90
53282;DHT22;39167;52.794;6.892;2023-02-28T13:27:22;7.30;99.90
53282;DHT22;39167;52.794;6.892;2023-02-28T13:29:50;7.40;99.90
53282;DHT22;39167;52.794;6.892;2023-02-28T13:32:28;7.40;99.90
53282;DHT22;39167;52.794;6.892;2023-02-28T13:39:56;7.90;99.90
53282;DHT22;39167;52.794;6.892;2023-02-28T14:06:48;7.80;99.90
53282;DHT22;39167;52.794;6.892;2023-02-28T14:09:26;7.80;99.90
53282;DHT22;39167;52.794;6.892;2023-02-28T14:11:53;7.80;99.90
53282;DHT22;39167;52.794;6.892;2023-02-28T14:17:01;7.90;99.90
53282;DHT22;39167;52.794;6.892;2023-02-28T14:19:29;7.90;99.90
53282;DHT22;39167;52.794;6.892;2023-02-28T14:22:09;7.90;99.90
53282;DHT22;39167;52.794;6.892;2023-02-28T14:36:10;8.30;99.90
53282;DHT22;39167;52.794;6.892;2023-02-28T14:41:16;7.80;99.90
53282;DHT22;39167;52.794;6.892;2023-02-28T14:43:54;7.80;99.90
53282;DHT22;39167;52.794;6.892;2023-02-28T14:46:28;8.30;99.90
53282;DHT22;39167;52.794;6.892;2023-02-28T14:48:55;7.80;99.90
53282;DHT22;39167;52.794;6.892;2023-02-28T14:51:23;7.80;99.90
53282;DHT22;39167;52.794;6.892;2023-02-28T14:53:52;7.80;99.90
53282;DHT22;39167;52.794;6.892;2023-02-28T14:56:27;7.80;99.90
53282;DHT22;39167;52.794;6.892;2023-02-28T14:58:56;7.70;99.90
53282;DHT22;39167;52.794;6.892;2023-02-28T15:01:23;7.70;99.90
53282;DHT22;39167;52.794;6.892;2023-02-28T15:04:06;7.70;99.90
53282;DHT22;39167;52.794;6.892;2023-02-28T15:06:33;7.70;99.90
53282;DHT22;39167;52.794;6.892;2023-02-28T15:09:10;7.70;99.90
53282;DHT22;39167;52.794;6.892;2023-02-28T15:11:38;7.70;99.90
53282;DHT22;39167;52.794;6.892;2023-02-28T15:14:05;7.70;99.90
53282;DHT22;39167;52.794;6.892;2023-02-28T15:16:39;7.70;99.90
53282;DHT22;39167;52.794;6.892;2023-02-28T15:19:25;7.60;99.90
53282;DHT22;39167;52.794;6.892;2023-02-28T15:22:02;7.60;99.90
53282;DHT22;39167;52.794;6.892;2023-02-28T15:24:49;7.60;99.90
53282;DHT22;39167;52.794;6.892;2023-02-28T15:27:20;7.50;99.90
53282;DHT22;39167;52.794;6.892;2023-02-28T15:29:49;7.50;99.90
53282;DHT22;39167;52.794;6.892;2023-02-28T15:32:30;7.50;99.90
53282;DHT22;39167;52.794;6.892;2023-02-28T15:34:57;7.50;99.90
53282;DHT22;39167;52.794;6.892;2023-02-28T15:37:29;7.50;99.90
53282;DHT22;39167;52.794;6.892;2023-02-28T15:39:58;7.40;99.90
53282;DHT22;39167;52.794;6.892;2023-02-28T15:42:29;7.60;99.90
53282;DHT22;39167;52.794;6.892;2023-02-28T15:44:59;7.40;99.90
53282;DHT22;39167;52.794;6.892;2023-02-28T15:47:27;7.30;99.90
53282;DHT22;39167;52.794;6.892;2023-02-28T15:49:59;7.30;99.90
53282;DHT22;39167;52.794;6.892;2023-02-28T15:52:37;7.20;99.90
53282;DHT22;39167;52.794;6.892;2023-02-28T15:55:23;7.20;99.90
53282;DHT22;39167;52.794;6.892;2023-02-28T15:57:55;7.20;99.90
53282;DHT22;39167;52.794;6.892;2023-02-28T16:00:25;7.10;99.90
53282;DHT22;39167;52.794;6.892;2023-02-28T16:02:51;7.10;99.90
53282;DHT22;39167;52.794;6.892;2023-02-28T16:05:26;7.10;99.90
53282;DHT22;39167;52.794;6.892;2023-02-28T16:08:13;7.00;99.90
53282;DHT22;39167;52.794;6.892;2023-02-28T16:10:39;7.00;99.90
53282;DHT22;39167;52.794;6.892;2023-02-28T16:13:05;6.90;99.90
53282;DHT22;39167;52.794;6.892;2023-02-28T16:15:38;6.90;99.90
53282;DHT22;39167;52.794;6.892;2023-02-28T16:18:10;6.80;99.90
53282;DHT22;39167;52.794;6.892;2023-02-28T16:20:36;6.80;99.90
53282;DHT22;39167;52.794;6.892;2023-02-28T16:23:02;6.70;99.90
53282;DHT22;39167;52.794;6.892;2023-02-28T16:25:42;6.60;99.90
53282;DHT22;39167;52.794;6.892;2023-02-28T16:28:23;6.60;99.90
53282;DHT22;39167;52.794;6.892;2023-02-28T16:30:51;7.10;99.90
53282;DHT22;39167;52.794;6.892;2023-02-28T16:33:17;6.50;99.90
53282;DHT22;39167;52.794;6.892;2023-02-28T16:35:43;6.50;99.90
53282;DHT22;39167;52.794;6.892;2023-02-28T16:38:08;6.60;99.90
53282;DHT22;39167;52.794;6.892;2023-02-28T16:40:37;7.00;99.90
53282;DHT22;39167;52.794;6.892;2023-02-28T16:43:19;6.30;99.90
53282;DHT22;39167;52.794;6.892;2023-02-28T16:45:46;6.20;99.90
53282;DHT22;39167;52.794;6.892;2023-02-28T16:48:15;6.20;99.90
53282;DHT22;39167;52.794;6.892;2023-02-28T16:50:41;6.10;99.90
53282;DHT22;39167;52.794;6.892;2023-02-28T16:53:07;6.10;99.90
53282;DHT22;39167;52.794;6.892;2023-02-28T16:55:35;6.00;99.90
53282;DHT22;39167;52.794;6.892;2023-02-28T16:58:01;6.00;99.90
53282;DHT22;39167;52.794;6.892;2023-02-28T17:00:29;5.90;99.90
53282;DHT22;39167;52.794;6.892;2023-02-28T17:02:55;5.90;99.90
53282;DHT22;39167;52.794;6.892;2023-02-28T17:05:22;5.80;99.90
53282;DHT22;39167;52.794;6.892;2023-02-28T17:07:48;5.70;99.90
53282;DHT22;39167;52.794;6.892;2023-02-28T17:10:21;5.70;99.90
53282;DHT22;39167;52.794;6.892;2023-02-28T17:12:47;5.70;99.90
53282;DHT22;39167;52.794;6.892;2023-02-28T17:15:15;5.60;99.90
53282;DHT22;39167;52.794;6.892;2023-02-28T17:17:41;5.50;99.90
53282;DHT22;39167;52.794;6.892;2023-02-28T17:20:19;5.40;99.90
53282;DHT22;39167;52.794;6.892;2023-02-28T17:22:51;5.30;99.90
53282;DHT22;39167;52.794;6.892;2023-02-28T17:25:17;5.90;99.90
53282;DHT22;39167;52.794;6.892;2023-02-28T17:27:43;5.20;99.90
53282;DHT22;39167;52.794;6.892;2023-02-28T17:32:42;5.10;99.90
53282;DHT22;39167;52.794;6.892;2023-02-28T17:35:11;5.00;99.90
53282;DHT22;39167;52.794;6.892;2023-02-28T17:37:37;4.90;99.90
53282;DHT22;39167;52.794;6.892;2023-02-28T17:40:03;4.90;99.90
53282;DHT22;39167;52.794;6.892;2023-02-28T17:42:29;4.80;99.90
53282;DHT22;39167;52.794;6.892;2023-02-28T17:44:55;4.80;99.90
53282;DHT22;39167;52.794;6.892;2023-02-28T17:47:20;4.80;99.90
53282;DHT22;39167;52.794;6.892;2023-02-28T17:49:46;4.70;99.90
53282;DHT22;39167;52.794;6.892;2023-02-28T17:52:12;4.80;99.90
53282;DHT22;39167;52.794;6.892;2023-02-28T17:54:38;4.50;99.90
53282;DHT22;39167;52.794;6.892;2023-02-28T17:57:03;4.70;99.90
53282;DHT22;39167;52.794;6.892;2023-02-28T17:59:29;4.90;99.90
53282;DHT22;39167;52.794;6.892;2023-02-28T18:02:02;4.60;99.90
53282;DHT22;39167;52.794;6.892;2023-02-28T18:04:29;4.30;99.90
53282;DHT22;39167;52.794;6.892;2023-02-28T18:06:54;4.30;99.90
53282;DHT22;39167;52.794;6.892;2023-02-28T18:09:26;4.80;99.90
53282;DHT22;39167;52.794;6.892;2023-02-28T18:11:53;4.20;99.90
53282;DHT22;39167;52.794;6.892;2023-02-28T18:14:21;4.10;99.90
53282;DHT22;39167;52.794;6.892;2023-02-28T18:16:48;4.10;99.90
53282;DHT22;39167;52.794;6.892;2023-02-28T18:19:14;4.70;99.90
53282;DHT22;39167;52.794;6.892;2023-02-28T18:21:42;4.00;99.90
53282;DHT22;39167;52.794;6.892;2023-02-28T18:24:09;4.00;99.90
53282;DHT22;39167;52.794;6.892;2023-02-28T18:26:36;4.00;99.90
53282;DHT22;39167;52.794;6.892;2023-02-28T18:29:02;4.60;99.90
53282;DHT22;39167;52.794;6.892;2023-02-28T18:31:28;3.80;99.90
53282;DHT22;39167;52.794;6.892;2023-02-28T18:33:54;4.70;99.90
53282;DHT22;39167;52.794;6.892;2023-02-28T18:36:20;3.80;99.90
53282;DHT22;39167;52.794;6.892;2023-02-28T18:38:47;3.70;99.90